Ora Direzione Vento Velocita' Vento Media Vento Raffica Max. Temperatura Wind Chill Pioggia Pressione
20:44:51.00 °(N)0.0 Kts0.0 Kts3.9 Kts22.3 °C26.97 °C0.0 mm0.0 Hpa
20:24:35.00 °(N)0.0 Kts0.0 Kts3.9 Kts23.3 °C27.6 °C0.0 mm0.0 Hpa
20:04:18.00 °(N)0.0 Kts0.0 Kts3.9 Kts24.3 °C28.22 °C0.0 mm0.0 Hpa
19:44:01.00 °(N)0.0 Kts0.0 Kts3.9 Kts24.7 °C28.47 °C0.0 mm0.0 Hpa
19:24:46.0357 °(N)0.0 Kts0.0 Kts3.9 Kts25.2 °C28.78 °C0.0 mm0.0 Hpa
19:04:24.0335 °(NNW)0.0 Kts0.0 Kts3.9 Kts26.8 °C29.77 °C0.0 mm0.0 Hpa
18:44:04.0336 °(NNW)0.0 Kts0.0 Kts3.9 Kts27.3 °C30.08 °C0.0 mm0.0 Hpa
18:23:39.0333 °(NNW)0.0 Kts0.0 Kts3.9 Kts27.7 °C30.33 °C0.0 mm0.0 Hpa
18:04:34.0333 °(NNW)0.0 Kts0.0 Kts3.9 Kts28.2 °C30.64 °C0.0 mm0.0 Hpa
17:44:13.0334 °(NNW)0.0 Kts0.0 Kts3.9 Kts28.1 °C30.58 °C0.0 mm0.0 Hpa
17:23:49.0322 °(NW)0.0 Kts0.0 Kts3.9 Kts28.3 °C30.7 °C0.0 mm0.0 Hpa
17:04:36.0299 °(WNW)0.0 Kts0.0 Kts3.9 Kts28.3 °C30.7 °C0.0 mm521.9 Hpa
16:44:09.0283 °(WNW)0.0 Kts0.0 Kts3.9 Kts28.2 °C30.64 °C0.0 mm0.0 Hpa
16:23:48.0280 °(W)0.0 Kts0.0 Kts3.9 Kts27.6 °C30.27 °C0.0 mm0.0 Hpa
16:04:37.0261 °(W)0.0 Kts0.0 Kts3.9 Kts27.2 °C30.02 °C0.0 mm0.0 Hpa
15:44:24.0248 °(WSW)0.0 Kts0.0 Kts3.9 Kts27.1 °C29.96 °C0.0 mm0.0 Hpa
15:24:05.0230 °(SW)0.0 Kts0.0 Kts3.9 Kts27.5 °C30.21 °C0.0 mm0.0 Hpa
15:03:48.0230 °(SW)0.0 Kts0.0 Kts3.9 Kts27.8 °C30.39 °C0.0 mm0.0 Hpa
14:43:46.0213 °(SSW)0.0 Kts0.0 Kts3.9 Kts28.0 °C30.52 °C0.0 mm571.4 Hpa
14:23:55.0194 °(SSW)0.0 Kts0.0 Kts3.9 Kts27.3 °C30.08 °C0.0 mm0.0 Hpa